Time;durP1;ratioP1;P1;durP2;ratioP2;P2;SDS_P1;SDS_P2;PMS_P1;PMS_P2;Temp;Humidity;BMP_temperature;BMP_pressure;BME280_temperature;BME280_humidity;BME280_pressure;Samples;Min_cycle;Max_cycle;Signal;HPM_P1;HPM_P2
2022/01/19 00:01:04;;;;;;;;;;;23.60;50.20;;;;;;1595099;74;748;-73
2022/01/19 00:03:06;;;;;;;;;;;23.50;50.20;;;;;;1594661;74;745;-73
2022/01/19 00:05:08;;;;;;;;;;;23.50;50.20;;;;;;1593563;74;758;-74
2022/01/19 00:07:10;;;;;;;;;;;23.60;50.20;;;;;;1604509;74;712;-75
2022/01/19 00:09:12;;;;;;;;;;;23.60;50.20;;;;;;1607908;73;1173;-74
2022/01/19 00:11:14;;;;;;;;;;;23.60;50.10;;;;;;1607758;74;1926;-72
2022/01/19 00:13:16;;;;;;;;;;;23.60;50.20;;;;;;1607926;74;721;-73
2022/01/19 00:15:18;;;;;;;;;;;23.60;50.20;;;;;;1597323;74;692;-74
2022/01/19 00:17:20;;;;;;;;;;;23.60;50.20;;;;;;1594659;74;701;-72
2022/01/19 00:19:21;;;;;;;;;;;23.60;50.20;;;;;;1593756;73;1122;-73
2022/01/19 00:21:23;;;;;;;;;;;23.60;50.20;;;;;;1594618;74;771;-75
2022/01/19 00:23:25;;;;;;;;;;;23.60;50.20;;;;;;1587630;75;666;-75
2022/01/19 00:25:27;;;;;;;;;;;23.50;50.10;;;;;;1584928;75;690;-77
2022/01/19 00:27:29;;;;;;;;;;;23.50;50.20;;;;;;1584816;75;742;-74
2022/01/19 00:29:31;;;;;;;;;;;23.60;50.20;;;;;;1581399;75;1140;-75
2022/01/19 00:31:33;;;;;;;;;;;23.60;50.20;;;;;;1594635;74;1921;-75
2022/01/19 00:33:36;;;;;;;;;;;23.50;50.20;;;;;;1594606;74;658;-75
2022/01/19 00:35:38;;;;;;;;;;;23.50;50.20;;;;;;1594502;74;708;-76
2022/01/19 00:37:40;;;;;;;;;;;23.60;50.20;;;;;;1594686;74;720;-76
2022/01/19 00:39:42;;;;;;;;;;;23.50;50.20;;;;;;1597649;74;1147;-74
2022/01/19 00:41:44;;;;;;;;;;;23.60;50.20;;;;;;1568809;76;756;-76
2022/01/19 00:43:46;;;;;;;;;;;23.50;50.20;;;;;;1587817;75;797;-72
2022/01/19 00:45:48;;;;;;;;;;;23.60;50.30;;;;;;1597425;74;800;-74
2022/01/19 00:47:50;;;;;;;;;;;23.40;50.10;;;;;;1594765;74;714;-73
2022/01/19 00:49:53;;;;;;;;;;;23.60;50.20;;;;;;1597560;73;1138;-74
2022/01/19 00:51:55;;;;;;;;;;;23.60;50.20;;;;;;1567536;76;1915;-74
2022/01/19 00:53:57;;;;;;;;;;;23.50;50.20;;;;;;1567459;76;635;-75
2022/01/19 00:55:59;;;;;;;;;;;23.50;50.20;;;;;;1567340;75;711;-80
2022/01/19 00:58:01;;;;;;;;;;;23.50;50.20;;;;;;1541879;76;742;-74
2022/01/19 01:00:04;;;;;;;;;;;23.50;50.20;;;;;;1548076;74;1124;-75
2022/01/19 01:02:06;;;;;;;;;;;23.50;50.20;;;;;;1540933;77;744;-74
2022/01/19 01:04:08;;;;;;;;;;;23.50;50.20;;;;;;1541025;77;663;-74
2022/01/19 01:06:10;;;;;;;;;;;23.50;50.20;;;;;;1540870;77;781;-77
2022/01/19 01:08:12;;;;;;;;;;;23.50;50.20;;;;;;1551881;75;800;-74
2022/01/19 01:10:14;;;;;;;;;;;23.40;50.10;;;;;;1567419;74;1155;-74
2022/01/19 01:12:29;;;;;;;;;;;23.50;50.20;;;;;;1567462;76;723;-76
2022/01/19 01:17:10;;;;;;;;;;;23.50;50.20;;;;;;1567329;75;1641;-74
2022/01/19 01:18:55;;;;;;;;;;;23.50;50.20;;;;;;1547326;75;1179;-75
2022/01/19 01:20:57;;;;;;;;;;;23.50;50.20;;;;;;1567419;76;744;-76
2022/01/19 01:22:59;;;;;;;;;;;23.40;50.10;;;;;;1565979;76;728;-75
2022/01/19 01:25:01;;;;;;;;;;;23.50;50.30;;;;;;1578747;75;725;-76
2022/01/19 01:27:03;;;;;;;;;;;23.50;50.20;;;;;;1578683;75;642;-74
2022/01/19 01:29:05;;;;;;;;;;;23.50;50.30;;;;;;1566124;74;1159;-74
2022/01/19 01:31:09;;;;;;;;;;;23.40;50.20;;;;;;1584963;75;1957;-75
2022/01/19 01:33:10;;;;;;;;;;;23.50;50.30;;;;;;1582555;75;1939;-74
2022/01/19 01:35:12;;;;;;;;;;;23.50;50.20;;;;;;1594790;74;766;-74
2022/01/19 01:37:14;;;;;;;;;;;23.50;50.30;;;;;;1594313;74;721;-74
2022/01/19 01:39:16;;;;;;;;;;;23.50;50.20;;;;;;1559352;76;1157;-76
2022/01/19 01:41:18;;;;;;;;;;;23.50;50.30;;;;;;1562851;76;792;-77
2022/01/19 01:43:20;;;;;;;;;;;23.50;50.20;;;;;;1582522;75;724;-73
2022/01/19 01:45:27;;;;;;;;;;;23.50;50.20;;;;;;1587411;74;716;-75
2022/01/19 01:47:27;;;;;;;;;;;23.50;50.30;;;;;;1581968;75;1605;-73
2022/01/19 01:49:39;;;;;;;;;;;23.50;50.30;;;;;;1565518;75;1151;-74
2022/01/19 01:53:52;;;;;;;;;;;23.40;50.20;;;;;;1558723;76;1669;-75
2022/01/19 01:55:58;;;;;;;;;;;23.50;50.30;;;;;;1558861;76;728;-75
2022/01/19 01:58:00;;;;;;;;;;;23.50;50.30;;;;;;1557893;76;728;-74
2022/01/19 02:00:03;;;;;;;;;;;23.50;50.30;;;;;;1582580;75;1186;-77
2022/01/19 02:02:05;;;;;;;;;;;23.50;50.30;;;;;;1594765;74;719;-73
2022/01/19 02:04:07;;;;;;;;;;;23.40;50.20;;;;;;1594765;74;791;-74
2022/01/19 02:08:22;;;;;;;;;;;23.50;50.20;;;;;;1594659;74;820;-74
2022/01/19 02:10:54;;;;;;;;;;;23.40;50.20;;;;;;1565384;75;1195;-73
2022/01/19 02:22:04;;;;;;;;;;;23.40;50.20;;;;;;1597649;74;1636;-73
2022/01/19 02:24:10;;;;;;;;;;;23.40;50.20;;;;;;1571425;76;725;-72
2022/01/19 02:26:17;;;;;;;;;;;23.40;50.30;;;;;;1576018;74;1658;-73
2022/01/19 02:41:46;;;;;;;;;;;23.40;50.40;;;;;;1595757;74;751;-76
2022/01/19 02:43:50;;;;;;;;;;;23.40;50.50;;;;;;1591881;74;720;-74
2022/01/19 02:50:31;;;;;;;;;;;23.40;50.40;;;;;;1556202;74;1611;-73
2022/01/19 02:52:33;;;;;;;;;;;23.30;50.40;;;;;;1571899;75;1931;-76
2022/01/19 02:54:35;;;;;;;;;;;23.30;50.30;;;;;;1596689;74;901;-75
2022/01/19 02:56:39;;;;;;;;;;;23.30;50.40;;;;;;1593346;74;627;-74
2022/01/19 02:58:45;;;;;;;;;;;23.30;50.30;;;;;;1590451;74;1604;-76
2022/01/19 03:10:05;;;;;;;;;;;23.30;50.40;;;;;;1530718;76;1697;-78
2022/01/19 03:12:08;;;;;;;;;;;23.30;50.30;;;;;;1578085;75;1916;-77
2022/01/19 03:14:10;;;;;;;;;;;23.30;50.30;;;;;;1597488;74;748;-79
2022/01/19 03:16:11;;;;;;;;;;;23.30;50.30;;;;;;1592593;73;723;-78
2022/01/19 03:18:13;;;;;;;;;;;23.30;50.30;;;;;;1592502;74;835;-76
2022/01/19 03:20:15;;;;;;;;;;;23.30;50.30;;;;;;1587078;73;1095;-77
2022/01/19 03:22:21;;;;;;;;;;;23.30;50.30;;;;;;1593124;74;1130;-76
2022/01/19 03:24:21;;;;;;;;;;;23.30;50.40;;;;;;1597290;74;1104;-77
2022/01/19 03:26:22;;;;;;;;;;;23.30;50.40;;;;;;1592203;74;767;-76
2022/01/19 03:28:24;;;;;;;;;;;23.30;50.40;;;;;;1597412;73;737;-78
2022/01/19 03:30:26;;;;;;;;;;;23.30;50.40;;;;;;1593401;74;1184;-76
2022/01/19 03:32:28;;;;;;;;;;;23.30;50.40;;;;;;1597384;74;1941;-74
2022/01/19 03:34:30;;;;;;;;;;;23.30;50.50;;;;;;1593095;74;699;-76
2022/01/19 03:36:32;;;;;;;;;;;23.30;50.50;;;;;;1596911;73;758;-76
2022/01/19 03:38:34;;;;;;;;;;;23.30;50.50;;;;;;1597422;74;770;-76
2022/01/19 03:40:36;;;;;;;;;;;23.30;50.50;;;;;;1593311;74;1127;-76
2022/01/19 03:42:38;;;;;;;;;;;23.30;50.50;;;;;;1596875;74;625;-75
2022/01/19 03:44:40;;;;;;;;;;;23.30;50.50;;;;;;1583460;73;223236;-66
2022/01/19 03:46:56;;;;;;;;;;;23.30;50.50;;;;;;1605238;73;710;-68
2022/01/19 03:49:08;;;;;;;;;;;23.30;50.50;;;;;;1597900;73;1687;-69
2022/01/19 03:51:01;;;;;;;;;;;23.30;50.50;;;;;;1598442;73;1661;-69
2022/01/19 03:53:03;;;;;;;;;;;23.40;50.50;;;;;;1598555;73;1932;-68
2022/01/19 03:55:05;;;;;;;;;;;23.40;50.50;;;;;;1616874;73;1202;-69
2022/01/19 03:57:07;;;;;;;;;;;23.40;50.50;;;;;;1606539;73;920;-69
2022/01/19 03:59:09;;;;;;;;;;;23.40;50.50;;;;;;1606483;74;681;-68
2022/01/19 04:01:11;;;;;;;;;;;23.30;50.50;;;;;;1600505;74;706;-69
2022/01/19 04:03:16;;;;;;;;;;;23.40;50.50;;;;;;1605342;74;778;-70
2022/01/19 04:05:23;;;;;;;;;;;23.40;50.50;;;;;;1597656;73;1684;-68
2022/01/19 04:07:21;;;;;;;;;;;23.40;50.50;;;;;;1597009;73;1613;-69
2022/01/19 04:09:23;;;;;;;;;;;23.40;50.50;;;;;;1603803;74;842;-68
2022/01/19 04:11:26;;;;;;;;;;;23.40;50.50;;;;;;1604743;74;1934;-69
2022/01/19 04:15:31;;;;;;;;;;;23.60;50.60;;;;;;1603204;74;1117;-69
2022/01/19 04:17:33;;;;;;;;;;;23.50;50.60;;;;;;1605815;74;762;-69
2022/01/19 04:19:44;;;;;;;;;;;23.60;50.50;;;;;;1596188;74;740;-70
2022/01/19 04:21:45;;;;;;;;;;;23.50;50.50;;;;;;1603666;74;1009;-67
2022/01/19 04:23:49;;;;;;;;;;;23.50;50.50;;;;;;1604023;74;1104;-68
2022/01/19 04:25:50;;;;;;;;;;;23.60;50.40;;;;;;1604032;74;788;-68
2022/01/19 04:27:52;;;;;;;;;;;23.60;50.40;;;;;;1598960;74;685;-69
2022/01/19 04:30:03;;;;;;;;;;;23.60;50.30;;;;;;1600127;74;792;-69
2022/01/19 04:32:09;;;;;;;;;;;23.70;50.40;;;;;;1602023;74;1918;-67
2022/01/19 04:34:06;;;;;;;;;;;23.70;50.40;;;;;;1599857;73;1193;-69
2022/01/19 04:36:27;;;;;;;;;;;23.70;50.30;;;;;;1599064;74;762;-67
2022/01/19 04:48:14;;;;;;;;;;;23.70;50.20;;;;;;1515748;78;906;-68
2022/01/19 05:04:10;;;;;;;;;;;23.80;50.00;;;;;;1569844;76;1639;-68
2022/01/19 05:05:57;;;;;;;;;;;23.80;50.00;;;;;;1562069;75;1340;-69
2022/01/19 05:14:33;;;;;;;;;;;23.90;50.00;;;;;;1584245;73;1612;-68
2022/01/19 05:16:35;;;;;;;;;;;23.90;50.00;;;;;;1618630;73;713;-68
2022/01/19 05:18:37;;;;;;;;;;;23.90;50.00;;;;;;1611218;73;684;-67
2022/01/19 05:20:39;;;;;;;;;;;23.90;49.90;;;;;;1570825;75;724;-68
2022/01/19 05:22:40;;;;;;;;;;;23.80;49.90;;;;;;1586711;75;790;-68
2022/01/19 05:24:42;;;;;;;;;;;23.80;49.80;;;;;;1590146;75;1133;-69
2022/01/19 05:26:46;;;;;;;;;;;23.80;49.80;;;;;;1590122;75;671;-68
2022/01/19 05:28:47;;;;;;;;;;;23.80;49.80;;;;;;1589341;73;766;-68
2022/01/19 05:30:49;;;;;;;;;;;23.90;49.80;;;;;;1590248;75;761;-68
2022/01/19 05:32:51;;;;;;;;;;;23.90;49.80;;;;;;1590120;75;1925;-68
2022/01/19 05:34:53;;;;;;;;;;;23.90;49.80;;;;;;1590149;75;1161;-68
2022/01/19 05:36:55;;;;;;;;;;;23.90;49.80;;;;;;1575549;73;718;-69
2022/01/19 05:38:57;;;;;;;;;;;23.90;49.70;;;;;;1563105;76;723;-68
2022/01/19 05:40:59;;;;;;;;;;;23.90;49.70;;;;;;1563204;76;720;-68
2022/01/19 05:43:01;;;;;;;;;;;23.90;49.80;;;;;;1563202;76;804;-68
2022/01/19 05:45:03;;;;;;;;;;;23.80;49.70;;;;;;1563056;76;1396;-68
2022/01/19 05:47:05;;;;;;;;;;;23.90;49.70;;;;;;1564687;73;793;-70
2022/01/19 05:49:07;;;;;;;;;;;23.90;49.70;;;;;;1564710;73;786;-68
2022/01/19 05:51:09;;;;;;;;;;;23.90;49.60;;;;;;1563099;76;692;-69
2022/01/19 05:53:11;;;;;;;;;;;23.90;49.60;;;;;;1557737;75;1934;-68
2022/01/19 05:55:12;;;;;;;;;;;23.90;49.60;;;;;;1552120;76;1107;-67
2022/01/19 05:57:14;;;;;;;;;;;23.90;49.50;;;;;;1552219;76;776;-68
2022/01/19 05:59:16;;;;;;;;;;;23.90;49.60;;;;;;1563846;73;821;-68
2022/01/19 06:01:18;;;;;;;;;;;23.90;49.60;;;;;;1564687;75;696;-68
2022/01/19 06:03:20;;;;;;;;;;;24.00;49.60;;;;;;1585839;75;766;-70
2022/01/19 06:05:22;;;;;;;;;;;23.90;49.70;;;;;;1590070;74;1128;-71
2022/01/19 06:07:28;;;;;;;;;;;23.90;49.60;;;;;;1576433;73;1059;-68
2022/01/19 06:09:35;;;;;;;;;;;23.90;49.60;;;;;;1575632;75;1096;-69
2022/01/19 06:11:37;;;;;;;;;;;23.90;49.50;;;;;;1576292;75;707;-69
2022/01/19 06:13:39;;;;;;;;;;;24.00;49.50;;;;;;1589800;73;1937;-71
2022/01/19 06:15:41;;;;;;;;;;;23.90;49.50;;;;;;1577004;73;1073;-70
2022/01/19 06:17:43;;;;;;;;;;;23.90;49.50;;;;;;1563153;76;728;-69
2022/01/19 06:19:47;;;;;;;;;;;23.90;49.60;;;;;;1564899;73;915;-68
2022/01/19 06:21:48;;;;;;;;;;;23.90;49.60;;;;;;1586605;75;1284;-69
2022/01/19 06:23:50;;;;;;;;;;;23.90;49.60;;;;;;1590137;75;1113;-68
2022/01/19 06:25:53;;;;;;;;;;;23.80;49.50;;;;;;1590189;75;546;-70
2022/01/19 06:27:55;;;;;;;;;;;23.90;49.60;;;;;;1582155;73;703;-70
2022/01/19 06:29:57;;;;;;;;;;;23.80;49.50;;;;;;1563309;76;712;-68
2022/01/19 06:32:00;;;;;;;;;;;23.80;49.60;;;;;;1579160;75;1925;-70
2022/01/19 06:34:02;;;;;;;;;;;23.90;49.70;;;;;;1590095;75;1129;-69
2022/01/19 06:36:04;;;;;;;;;;;23.90;49.60;;;;;;1590278;74;729;-70
2022/01/19 06:38:05;;;;;;;;;;;23.90;49.70;;;;;;1591147;73;736;-70
2022/01/19 06:40:08;;;;;;;;;;;23.90;49.70;;;;;;1590264;75;694;-68
2022/01/19 06:42:10;;;;;;;;;;;23.90;49.80;;;;;;1590207;75;771;-72
2022/01/19 06:44:15;;;;;;;;;;;23.90;49.80;;;;;;1590248;75;1137;-69
2022/01/19 06:46:16;;;;;;;;;;;24.00;49.80;;;;;;1590304;73;729;-69
2022/01/19 06:48:18;;;;;;;;;;;23.90;49.80;;;;;;1563864;73;736;-71
2022/01/19 06:50:20;;;;;;;;;;;23.90;49.70;;;;;;1564352;73;780;-71
2022/01/19 06:52:22;;;;;;;;;;;23.90;49.70;;;;;;1562342;75;1924;-72
2022/01/19 06:54:24;;;;;;;;;;;23.90;49.50;;;;;;1561757;76;1131;-72
2022/01/19 06:56:26;;;;;;;;;;;23.90;49.40;;;;;;1561530;76;800;-73
2022/01/19 06:58:28;;;;;;;;;;;23.90;49.40;;;;;;1565732;73;712;-73
2022/01/19 07:00:30;;;;;;;;;;;23.90;49.40;;;;;;1569882;76;715;-72
2022/01/19 07:02:32;;;;;;;;;;;23.90;49.40;;;;;;1570043;76;751;-70
2022/01/19 07:04:33;;;;;;;;;;;23.80;49.40;;;;;;1570025;76;1150;-71
2022/01/19 07:06:35;;;;;;;;;;;23.80;49.30;;;;;;1571118;74;695;-72
2022/01/19 07:08:38;;;;;;;;;;;23.90;49.40;;;;;;1590770;73;732;-72
2022/01/19 07:10:40;;;;;;;;;;;23.80;49.30;;;;;;1587835;74;690;-69
2022/01/19 07:12:42;;;;;;;;;;;23.90;49.40;;;;;;1582135;75;1934;-71
2022/01/19 07:14:44;;;;;;;;;;;23.80;49.30;;;;;;1569738;76;1128;-71
2022/01/19 07:16:46;;;;;;;;;;;23.90;49.40;;;;;;1565564;76;783;-72
2022/01/19 07:18:48;;;;;;;;;;;23.80;49.40;;;;;;1597145;73;755;-71
2022/01/19 07:20:49;;;;;;;;;;;23.80;49.40;;;;;;1597690;74;678;-72
2022/01/19 07:22:51;;;;;;;;;;;23.90;49.40;;;;;;1581146;75;741;-73
2022/01/19 07:24:53;;;;;;;;;;;23.80;49.40;;;;;;1581150;75;1110;-72
2022/01/19 07:26:55;;;;;;;;;;;23.80;49.30;;;;;;1569276;74;714;-72
2022/01/19 07:28:57;;;;;;;;;;;23.80;49.40;;;;;;1558966;76;729;-72
2022/01/19 07:30:59;;;;;;;;;;;23.90;49.40;;;;;;1579273;75;702;-72
2022/01/19 07:33:01;;;;;;;;;;;23.80;49.30;;;;;;1579246;75;1945;-72
2022/01/19 07:35:03;;;;;;;;;;;23.80;49.30;;;;;;1579170;75;1173;-72
2022/01/19 07:37:05;;;;;;;;;;;23.80;49.30;;;;;;1562056;75;693;-71
2022/01/19 07:39:08;;;;;;;;;;;23.80;49.30;;;;;;1597399;74;697;-72
2022/01/19 07:41:10;;;;;;;;;;;23.80;49.20;;;;;;1597371;74;608;-71
2022/01/19 07:43:11;;;;;;;;;;;23.80;49.20;;;;;;1595562;74;760;-71
2022/01/19 07:45:13;;;;;;;;;;;23.80;49.20;;;;;;1592503;74;1147;-71
2022/01/19 07:47:15;;;;;;;;;;;23.80;49.20;;;;;;1592562;74;683;-71
2022/01/19 07:49:17;;;;;;;;;;;23.80;49.20;;;;;;1595178;73;690;-71
2022/01/19 07:51:19;;;;;;;;;;;23.70;49.20;;;;;;1587717;74;759;-70
2022/01/19 07:53:21;;;;;;;;;;;23.80;49.20;;;;;;1587032;73;1907;-70
2022/01/19 07:55:23;;;;;;;;;;;23.80;49.20;;;;;;1597534;74;1105;-69
2022/01/19 07:57:25;;;;;;;;;;;23.80;49.20;;;;;;1559235;74;712;-70
2022/01/19 07:59:27;;;;;;;;;;;23.70;49.30;;;;;;1568513;76;687;-69
2022/01/19 08:01:31;;;;;;;;;;;23.70;49.30;;;;;;1568329;75;730;-70
2022/01/19 08:03:32;;;;;;;;;;;23.80;49.30;;;;;;1592494;74;1529;-69
2022/01/19 08:05:34;;;;;;;;;;;23.80;49.30;;;;;;1559230;75;1123;-69
2022/01/19 08:07:36;;;;;;;;;;;23.80;49.40;;;;;;1594719;74;728;-69
2022/01/19 08:09:38;;;;;;;;;;;23.80;49.70;;;;;;1598593;74;723;-72
2022/01/19 08:11:40;;;;;;;;;;;23.80;49.50;;;;;;1580763;74;717;-71
2022/01/19 08:13:42;;;;;;;;;;;23.80;48.90;;;;;;1591297;73;1925;-73
2022/01/19 08:15:44;;;;;;;;;;;23.70;48.10;;;;;;1591549;73;1101;-72
2022/01/19 08:17:45;;;;;;;;;;;23.70;47.30;;;;;;1584643;73;707;-71
2022/01/19 08:19:47;;;;;;;;;;;23.70;46.80;;;;;;1586097;73;728;-72
2022/01/19 08:21:49;;;;;;;;;;;23.70;46.30;;;;;;1587697;73;690;-73
2022/01/19 08:23:51;;;;;;;;;;;23.60;45.90;;;;;;1587267;73;1134;-73
2022/01/19 08:25:53;;;;;;;;;;;23.60;45.70;;;;;;1581925;74;789;-72
2022/01/19 08:27:55;;;;;;;;;;;23.50;45.70;;;;;;1594029;73;681;-73
2022/01/19 08:29:57;;;;;;;;;;;23.50;45.50;;;;;;1585566;74;717;-71
2022/01/19 08:31:59;;;;;;;;;;;23.50;45.50;;;;;;1579345;74;734;-74
2022/01/19 08:34:01;;;;;;;;;;;23.50;45.40;;;;;;1586357;74;1928;-73
2022/01/19 08:36:03;;;;;;;;;;;23.50;45.00;;;;;;1590091;74;766;-73
2022/01/19 08:38:05;;;;;;;;;;;23.50;45.00;;;;;;1587620;74;737;-72
2022/01/19 08:40:07;;;;;;;;;;;23.40;44.80;;;;;;1594783;74;790;-72
2022/01/19 08:42:09;;;;;;;;;;;23.40;44.60;;;;;;1582526;74;711;-75
2022/01/19 08:44:11;;;;;;;;;;;23.40;44.60;;;;;;1592279;73;1171;-74
2022/01/19 08:46:13;;;;;;;;;;;23.40;44.50;;;;;;1584925;74;672;-72
2022/01/19 08:48:15;;;;;;;;;;;23.40;44.40;;;;;;1575703;73;772;-74
2022/01/19 08:50:17;;;;;;;;;;;23.40;44.40;;;;;;1583247;74;696;-71
2022/01/19 08:52:20;;;;;;;;;;;23.30;44.40;;;;;;1578347;74;718;-73
2022/01/19 08:54:21;;;;;;;;;;;23.30;44.40;;;;;;1588677;74;1885;-72
2022/01/19 08:56:23;;;;;;;;;;;23.40;43.90;;;;;;1585202;74;1038;-74
2022/01/19 08:58:25;;;;;;;;;;;23.30;44.00;;;;;;1581509;74;666;-72
2022/01/19 09:00:27;;;;;;;;;;;23.30;44.00;;;;;;1582658;74;711;-72
2022/01/19 09:02:29;;;;;;;;;;;23.30;44.10;;;;;;1575675;74;730;-72
2022/01/19 09:04:31;;;;;;;;;;;23.30;44.00;;;;;;1590143;74;1132;-72
2022/01/19 09:06:33;;;;;;;;;;;23.30;44.00;;;;;;1590020;74;731;-73
2022/01/19 09:08:34;;;;;;;;;;;23.30;43.60;;;;;;1540010;75;722;-72
2022/01/19 09:10:39;;;;;;;;;;;23.30;43.70;;;;;;1587507;73;681;-72
2022/01/19 09:12:40;;;;;;;;;;;23.30;43.60;;;;;;1534735;76;1172;-74
2022/01/19 09:14:42;;;;;;;;;;;23.30;43.80;;;;;;1588379;74;1942;-74
2022/01/19 09:16:49;;;;;;;;;;;23.30;43.70;;;;;;1576370;73;879;-74
2022/01/19 09:18:50;;;;;;;;;;;23.20;43.50;;;;;;1579165;73;1191;-72
2022/01/19 09:20:52;;;;;;;;;;;23.20;43.40;;;;;;1581849;73;752;-73
2022/01/19 09:22:54;;;;;;;;;;;23.20;43.50;;;;;;1577960;75;697;-72
2022/01/19 09:24:56;;;;;;;;;;;23.30;43.60;;;;;;1596940;73;1149;-72
2022/01/19 09:26:58;;;;;;;;;;;23.30;43.60;;;;;;1578424;75;710;-73
2022/01/19 09:28:59;;;;;;;;;;;23.30;43.60;;;;;;1572300;73;588;-72
2022/01/19 09:31:04;;;;;;;;;;;23.30;43.40;;;;;;1582002;73;676;-75
2022/01/19 09:33:10;;;;;;;;;;;23.30;43.20;;;;;;1577037;75;1098;-73
2022/01/19 09:35:11;;;;;;;;;;;23.30;43.00;;;;;;1582909;74;1177;-70
2022/01/19 09:37:13;;;;;;;;;;;23.30;43.10;;;;;;1583380;73;692;-74
2022/01/19 09:39:22;;;;;;;;;;;23.40;42.70;;;;;;1584970;75;689;-68
2022/01/19 09:41:24;;;;;;;;;;;23.40;42.50;;;;;;1590071;75;701;-71
2022/01/19 09:43:26;;;;;;;;;;;23.40;42.70;;;;;;1587551;74;705;-71
2022/01/19 09:45:28;;;;;;;;;;;23.40;43.10;;;;;;1587538;75;1148;-71
2022/01/19 09:47:30;;;;;;;;;;;23.50;43.30;;;;;;1586634;73;770;-74
2022/01/19 09:49:32;;;;;;;;;;;23.50;43.50;;;;;;1586914;73;720;-72
2022/01/19 09:51:34;;;;;;;;;;;23.50;43.90;;;;;;1588485;75;727;-72
2022/01/19 09:53:35;;;;;;;;;;;23.50;44.20;;;;;;1581247;74;1926;-73
2022/01/19 09:55:44;;;;;;;;;;;23.60;44.30;;;;;;1589587;75;1089;-72
2022/01/19 09:57:46;;;;;;;;;;;23.60;44.40;;;;;;1567094;73;697;-73
2022/01/19 09:59:48;;;;;;;;;;;23.70;44.70;;;;;;1580203;74;703;-72
2022/01/19 10:02:01;;;;;;;;;;;23.60;44.70;;;;;;1584865;74;708;-73
2022/01/19 10:04:19;;;;;;;;;;;23.70;44.80;;;;;;1588080;73;1141;-73
2022/01/19 10:06:22;;;;;;;;;;;23.80;44.90;;;;;;1580685;73;733;-71
2022/01/19 10:08:29;;;;;;;;;;;23.80;45.00;;;;;;1582633;75;691;-70
2022/01/19 10:10:31;;;;;;;;;;;23.80;45.00;;;;;;1588693;73;692;-68
2022/01/19 10:17:13;;;;;;;;;;;23.90;45.20;;;;;;1578677;73;1646;-72
2022/01/19 10:19:22;;;;;;;;;;;24.00;45.30;;;;;;1584816;73;729;-72
2022/01/19 10:21:24;;;;;;;;;;;24.00;45.30;;;;;;1586939;75;693;-71
2022/01/19 10:23:40;;;;;;;;;;;24.00;45.30;;;;;;1589176;73;708;-72
2022/01/19 10:25:48;;;;;;;;;;;24.00;45.40;;;;;;1593671;73;1146;-71
2022/01/19 10:27:50;;;;;;;;;;;24.00;45.40;;;;;;1587718;73;697;-72
2022/01/19 10:29:53;;;;;;;;;;;24.10;45.60;;;;;;1580072;74;702;-72
2022/01/19 10:31:55;;;;;;;;;;;24.10;45.60;;;;;;1573085;75;731;-72
2022/01/19 10:34:16;;;;;;;;;;;24.10;45.60;;;;;;1559864;74;1943;-70
2022/01/19 10:36:17;;;;;;;;;;;24.10;45.70;;;;;;1575494;73;704;-72
2022/01/19 10:38:26;;;;;;;;;;;24.10;45.70;;;;;;1572152;75;711;-72
2022/01/19 10:40:27;;;;;;;;;;;24.10;45.70;;;;;;1578738;75;1603;-72
2022/01/19 10:42:31;;;;;;;;;;;24.10;45.70;;;;;;1574876;75;798;-71
2022/01/19 10:44:37;;;;;;;;;;;24.20;45.70;;;;;;1587813;73;1160;-71
2022/01/19 10:46:39;;;;;;;;;;;24.20;45.70;;;;;;1583936;75;689;-72
2022/01/19 10:48:41;;;;;;;;;;;24.20;45.80;;;;;;1580870;73;649;-72
2022/01/19 10:50:44;;;;;;;;;;;24.10;45.70;;;;;;1583043;75;636;-72
2022/01/19 10:52:47;;;;;;;;;;;24.20;45.80;;;;;;1575691;75;814;-70
2022/01/19 10:54:48;;;;;;;;;;;24.20;45.80;;;;;;1579131;75;1930;-72
2022/01/19 10:56:54;;;;;;;;;;;24.20;45.80;;;;;;1573209;73;740;-71
2022/01/19 10:58:57;;;;;;;;;;;24.20;45.80;;;;;;1572684;75;1155;-72
2022/01/19 11:00:58;;;;;;;;;;;24.20;45.80;;;;;;1566546;75;1026;-72
2022/01/19 11:03:17;;;;;;;;;;;24.30;45.90;;;;;;1576482;75;929;-70
2022/01/19 11:05:19;;;;;;;;;;;24.30;45.50;;;;;;1574661;73;1079;-72
2022/01/19 11:07:22;;;;;;;;;;;24.30;45.50;;;;;;1591853;73;1182;-72
2022/01/19 11:09:26;;;;;;;;;;;24.30;45.60;;;;;;1585262;75;722;-74
2022/01/19 11:11:28;;;;;;;;;;;24.30;45.60;;;;;;1589309;75;706;-74
2022/01/19 11:13:40;;;;;;;;;;;24.30;45.70;;;;;;1589986;75;734;-73
2022/01/19 11:15:33;;;;;;;;;;;24.40;45.70;;;;;;1576731;73;1946;-74
2022/01/19 11:17:35;;;;;;;;;;;24.30;45.80;;;;;;1588433;73;672;-74
2022/01/19 11:19:39;;;;;;;;;;;24.40;45.80;;;;;;1579764;73;741;-75
2022/01/19 11:21:43;;;;;;;;;;;24.30;45.80;;;;;;1578439;75;1041;-75
2022/01/19 11:24:05;;;;;;;;;;;24.30;45.80;;;;;;1584144;75;1084;-73
2022/01/19 11:26:09;;;;;;;;;;;24.30;45.90;;;;;;1581500;73;1688;-74
2022/01/19 11:28:11;;;;;;;;;;;24.30;45.90;;;;;;1576706;73;634;-74
2022/01/19 11:30:15;;;;;;;;;;;24.40;45.90;;;;;;1576998;75;723;-75
2022/01/19 11:32:18;;;;;;;;;;;24.40;45.90;;;;;;1570431;75;715;-74
2022/01/19 11:34:40;;;;;;;;;;;24.30;45.90;;;;;;1569620;75;1922;-75
2022/01/19 11:36:43;;;;;;;;;;;24.40;46.00;;;;;;1580772;75;702;-74
2022/01/19 11:38:46;;;;;;;;;;;24.40;46.00;;;;;;1564758;75;685;-74
2022/01/19 11:40:48;;;;;;;;;;;24.30;46.00;;;;;;1575955;75;949;-75
2022/01/19 11:42:50;;;;;;;;;;;24.40;46.00;;;;;;1577448;73;683;-76
2022/01/19 11:44:52;;;;;;;;;;;24.40;46.00;;;;;;1588122;73;1194;-75
2022/01/19 11:46:55;;;;;;;;;;;24.40;46.00;;;;;;1579701;75;674;-74
2022/01/19 11:48:56;;;;;;;;;;;24.40;46.00;;;;;;1577388;73;724;-74
2022/01/19 11:51:00;;;;;;;;;;;24.40;45.90;;;;;;1578214;75;798;-75
2022/01/19 11:53:08;;;;;;;;;;;24.40;45.80;;;;;;1567121;75;1019;-74
2022/01/19 11:55:15;;;;;;;;;;;24.40;45.80;;;;;;1575730;74;1932;-72
2022/01/19 11:57:18;;;;;;;;;;;24.50;45.90;;;;;;1578033;73;713;-74
2022/01/19 11:59:21;;;;;;;;;;;24.40;45.80;;;;;;1564626;75;706;-75
2022/01/19 12:01:24;;;;;;;;;;;24.40;45.80;;;;;;1583199;73;732;-75
2022/01/19 12:03:30;;;;;;;;;;;24.40;45.80;;;;;;1577394;75;709;-78
2022/01/19 12:05:34;;;;;;;;;;;24.40;45.80;;;;;;1574496;73;1217;-73
2022/01/19 12:07:36;;;;;;;;;;;24.50;45.90;;;;;;1575779;73;961;-71
2022/01/19 12:09:39;;;;;;;;;;;24.50;45.50;;;;;;1570179;75;717;-73
2022/01/19 12:11:50;;;;;;;;;;;24.50;45.30;;;;;;1573455;75;962;-72
2022/01/19 12:15:58;;;;;;;;;;;24.50;45.30;;;;;;1582945;73;1929;-74
2022/01/19 12:18:07;;;;;;;;;;;24.50;45.30;;;;;;1568868;75;969;-72
2022/01/19 12:20:01;;;;;;;;;;;24.40;45.30;;;;;;1587500;73;1133;-73
2022/01/19 12:22:20;;;;;;;;;;;24.40;45.30;;;;;;1575493;75;749;-72
2022/01/19 12:24:24;;;;;;;;;;;24.30;45.30;;;;;;1590194;75;1113;-72
2022/01/19 12:26:27;;;;;;;;;;;24.30;45.30;;;;;;1574219;74;917;-72
2022/01/19 12:28:33;;;;;;;;;;;24.30;45.40;;;;;;1549754;74;1114;-72
2022/01/19 12:30:37;;;;;;;;;;;24.30;45.30;;;;;;1566783;74;1013;-73
2022/01/19 12:32:39;;;;;;;;;;;24.30;45.40;;;;;;1571282;74;650;-71
2022/01/19 12:34:48;;;;;;;;;;;24.30;45.50;;;;;;1568881;74;1935;-74
2022/01/19 12:36:56;;;;;;;;;;;24.30;45.50;;;;;;1572711;73;722;-73
2022/01/19 12:39:16;;;;;;;;;;;24.30;45.40;;;;;;1571478;75;718;-74
2022/01/19 12:41:18;;;;;;;;;;;24.20;45.20;;;;;;1578323;75;755;-73
2022/01/19 12:43:31;;;;;;;;;;;24.30;45.40;;;;;;1575251;75;660;-72
2022/01/19 12:45:34;;;;;;;;;;;24.30;45.40;;;;;;1580372;73;1138;-73
2022/01/19 12:47:43;;;;;;;;;;;24.30;45.40;;;;;;1590115;75;683;-73
2022/01/19 12:49:46;;;;;;;;;;;24.30;45.30;;;;;;1582288;73;695;-75
2022/01/19 12:51:48;;;;;;;;;;;24.30;45.20;;;;;;1587287;75;707;-74
2022/01/19 12:53:49;;;;;;;;;;;24.30;45.20;;;;;;1592583;73;1173;-74
2022/01/19 12:55:53;;;;;;;;;;;24.30;45.20;;;;;;1590027;73;1929;-74
2022/01/19 12:57:55;;;;;;;;;;;24.30;45.20;;;;;;1589919;74;1013;-74
2022/01/19 12:59:57;;;;;;;;;;;24.30;45.20;;;;;;1585599;73;604;-74
2022/01/19 13:01:59;;;;;;;;;;;24.40;45.20;;;;;;1581783;74;727;-71
2022/01/19 13:04:01;;;;;;;;;;;24.30;45.20;;;;;;1579526;74;1151;-72
2022/01/19 13:06:04;;;;;;;;;;;24.30;45.30;;;;;;1582251;74;706;-72
2022/01/19 13:08:08;;;;;;;;;;;24.30;45.30;;;;;;1581229;73;625;-72
2022/01/19 13:12:18;;;;;;;;;;;24.30;45.50;;;;;;1584021;73;814;-73
2022/01/19 13:14:22;;;;;;;;;;;24.20;45.30;;;;;;1577572;74;1132;-72
2022/01/19 13:16:30;;;;;;;;;;;24.20;45.40;;;;;;1589658;74;1170;-73
2022/01/19 13:18:34;;;;;;;;;;;24.30;45.60;;;;;;1588580;73;583;-72
2022/01/19 13:20:37;;;;;;;;;;;24.20;45.50;;;;;;1585580;75;709;-72
2022/01/19 13:22:46;;;;;;;;;;;24.20;45.50;;;;;;1588500;75;748;-72
2022/01/19 13:24:48;;;;;;;;;;;24.20;45.50;;;;;;1577124;75;1129;-73
2022/01/19 13:26:51;;;;;;;;;;;24.10;45.50;;;;;;1583356;73;700;-75
2022/01/19 13:28:53;;;;;;;;;;;24.10;45.60;;;;;;1585225;74;654;-73
2022/01/19 13:30:57;;;;;;;;;;;24.10;45.60;;;;;;1586984;74;768;-71
2022/01/19 13:32:59;;;;;;;;;;;24.20;45.60;;;;;;1571816;74;646;-73
2022/01/19 13:35:02;;;;;;;;;;;24.10;45.60;;;;;;1589631;75;1941;-72
2022/01/19 13:37:06;;;;;;;;;;;24.20;45.60;;;;;;1583983;73;714;-73
2022/01/19 13:39:07;;;;;;;;;;;24.20;45.60;;;;;;1586269;74;693;-74